Time;durP1;ratioP1;P1;durP2;ratioP2;P2;SDS_P1;SDS_P2;PMS_P1;PMS_P2;Temp;Humidity;BMP_temperature;BMP_pressure;BME280_temperature;BME280_humidity;BME280_pressure;Samples;Min_cycle;Max_cycle;Signal;HPM_P1;HPM_P2
2022/02/21 00:00:08;;;;;;;4.25;0.90;;;15.70;68.50;;;;;;4212201;28;20495;-65
2022/02/21 00:02:35;;;;;;;3.97;1.05;;;15.70;69.00;;;;;;4211807;27;20055;-64
2022/02/21 00:04:57;;;;;;;8.60;1.65;;;15.70;69.30;;;;;;4195448;28;20052;-65
2022/02/21 00:07:19;;;;;;;6.05;1.25;;;15.70;69.20;;;;;;4196155;28;20079;-65
2022/02/21 00:09:42;;;;;;;3.22;1.15;;;15.70;68.80;;;;;;4195535;28;20053;-63
2022/02/21 00:12:05;;;;;;;4.95;1.33;;;15.70;69.00;;;;;;4178401;28;20056;-62
2022/02/21 00:14:27;;;;;;;11.73;1.88;;;15.60;68.50;;;;;;4193337;28;20115;-63
2022/02/21 00:16:49;;;;;;;8.05;1.50;;;15.60;68.50;;;;;;4194800;28;20067;-63
2022/02/21 00:19:14;;;;;;;8.15;1.85;;;15.60;68.40;;;;;;4194281;28;20507;-63
2022/02/21 00:21:35;;;;;;;6.50;1.73;;;15.60;68.00;;;;;;4220702;27;20047;-64
2022/02/21 00:23:58;;;;;;;10.30;2.45;;;15.60;68.40;;;;;;4227433;28;20048;-62
2022/02/21 00:26:20;;;;;;;10.30;1.90;;;15.60;68.80;;;;;;4227401;27;20073;-62
2022/02/21 00:28:43;;;;;;;9.18;1.58;;;15.50;69.00;;;;;;4226462;28;20124;-62
2022/02/21 00:31:05;;;;;;;8.30;1.60;;;15.50;68.70;;;;;;4209387;28;20373;-64
2022/02/21 00:33:27;;;;;;;10.95;2.10;;;15.50;69.40;;;;;;4225152;28;20048;-64
2022/02/21 00:35:50;;;;;;;8.20;2.17;;;15.50;68.20;;;;;;4211253;28;20071;-64
2022/02/21 00:38:12;;;;;;;8.50;1.80;;;15.50;68.70;;;;;;4211575;28;20043;-64
2022/02/21 00:40:35;;;;;;;9.88;1.75;;;15.50;68.10;;;;;;4210637;28;20048;-64
2022/02/21 00:42:57;;;;;;;15.38;2.95;;;15.50;68.00;;;;;;4210062;28;20040;-64
2022/02/21 00:45:19;;;;;;;7.68;1.73;;;15.50;68.30;;;;;;4210479;28;20097;-64
2022/02/21 00:47:41;;;;;;;12.85;4.00;;;15.40;67.80;;;;;;4210470;28;20446;-64
2022/02/21 00:50:04;;;;;;;13.40;2.85;;;15.40;68.40;;;;;;4210403;28;20044;-64
2022/02/21 00:52:28;;;;;;;7.03;1.83;;;15.40;67.80;;;;;;4209541;28;20496;-64
2022/02/21 00:54:51;;;;;;;13.23;1.98;;;15.40;67.50;;;;;;4211408;28;20059;-64
2022/02/21 00:57:13;;;;;;;11.13;2.85;;;15.40;68.60;;;;;;4210304;28;20052;-63
2022/02/21 00:59:35;;;;;;;12.32;2.17;;;15.40;67.40;;;;;;4210414;28;20055;-64
2022/02/21 01:01:57;;;;;;;11.43;2.67;;;15.40;67.70;;;;;;4210111;28;20461;-64
2022/02/21 01:04:19;;;;;;;4.43;1.35;;;15.30;67.80;;;;;;4209951;28;20578;-64
2022/02/21 01:06:41;;;;;;;9.27;2.42;;;15.30;67.60;;;;;;4211269;28;20040;-63
2022/02/21 01:09:05;;;;;;;10.77;2.13;;;15.30;68.40;;;;;;4209762;28;20044;-64
2022/02/21 01:11:30;;;;;;;18.17;2.75;;;15.30;68.20;;;;;;4210853;28;20058;-64
2022/02/21 01:13:52;;;;;;;7.40;1.50;;;15.30;67.50;;;;;;4209680;28;20422;-64
2022/02/21 01:16:14;;;;;;;14.38;3.00;;;15.30;67.70;;;;;;4209966;28;20165;-64
2022/02/21 01:18:36;;;;;;;16.83;3.15;;;15.20;67.30;;;;;;4208555;28;20388;-64
2022/02/21 01:21:00;;;;;;;12.85;2.50;;;15.20;67.60;;;;;;4206854;28;20044;-64
2022/02/21 01:23:28;;;;;;;11.27;2.85;;;15.20;67.00;;;;;;4191516;27;20378;-63
2022/02/21 01:25:50;;;;;;;11.20;2.65;;;15.20;66.80;;;;;;4190547;28;20056;-64
2022/02/21 01:28:12;;;;;;;13.43;2.70;;;15.20;67.10;;;;;;4189590;28;20558;-64
2022/02/21 01:30:34;;;;;;;9.00;2.15;;;15.20;67.00;;;;;;4189967;28;20052;-63
2022/02/21 01:32:56;;;;;;;19.52;4.47;;;15.10;66.40;;;;;;4173645;28;21089;-62
2022/02/21 01:35:18;;;;;;;13.25;2.92;;;15.10;66.70;;;;;;4173454;28;20049;-62
2022/02/21 01:37:40;;;;;;;11.05;2.20;;;15.20;65.20;;;;;;4190195;28;20060;-63
2022/02/21 01:40:07;;;;;;;14.18;2.65;;;15.20;65.50;;;;;;4190339;28;20055;-63
2022/02/21 01:42:29;;;;;;;9.52;2.90;;;15.10;65.20;;;;;;4190360;28;20455;-63
2022/02/21 01:44:51;;;;;;;7.20;1.40;;;15.10;65.90;;;;;;4190042;28;20079;-63
2022/02/21 01:47:17;;;;;;;11.30;3.03;;;15.10;65.90;;;;;;4183283;28;20381;-63
2022/02/21 01:49:39;;;;;;;11.85;2.42;;;15.10;65.90;;;;;;4173550;28;20140;-64
2022/02/21 01:52:03;;;;;;;16.98;3.25;;;15.10;65.40;;;;;;4157018;28;20053;-63
2022/02/21 01:54:25;;;;;;;11.07;2.20;;;15.00;66.20;;;;;;4157078;28;20053;-64
2022/02/21 01:56:49;;;;;;;13.25;3.75;;;15.00;66.00;;;;;;4157084;28;20445;-64
2022/02/21 01:59:11;;;;;;;13.07;2.78;;;15.00;66.10;;;;;;4155600;28;20067;-64
2022/02/21 02:01:33;;;;;;;10.70;3.10;;;15.00;65.90;;;;;;4166356;28;20444;-64
2022/02/21 02:03:56;;;;;;;15.00;2.40;;;15.00;66.00;;;;;;4172834;28;20053;-64
2022/02/21 02:06:19;;;;;;;16.20;3.63;;;15.00;65.90;;;;;;4173392;28;20052;-63
2022/02/21 02:08:42;;;;;;;11.00;2.75;;;15.00;66.00;;;;;;4173439;28;20059;-64
2022/02/21 02:11:05;;;;;;;12.10;3.25;;;14.90;64.60;;;;;;4173335;28;20057;-64
2022/02/21 02:13:28;;;;;;;15.13;2.63;;;14.90;65.30;;;;;;4173370;28;20049;-64
2022/02/21 02:15:52;;;;;;;11.45;2.88;;;14.90;65.30;;;;;;4173200;28;20140;-64
2022/02/21 02:18:14;;;;;;;11.52;3.22;;;14.90;65.40;;;;;;4172516;28;20052;-64
2022/02/21 02:20:36;;;;;;;20.15;4.20;;;14.90;65.30;;;;;;4169982;28;20045;-64
2022/02/21 02:23:02;;;;;;;11.57;2.58;;;14.90;65.50;;;;;;4172737;28;20099;-64
2022/02/21 02:25:24;;;;;;;15.38;3.05;;;14.90;65.50;;;;;;4171594;28;20536;-63
2022/02/21 02:27:46;;;;;;;13.63;3.00;;;14.90;66.10;;;;;;4172880;28;20073;-63
2022/02/21 02:30:09;;;;;;;14.95;3.40;;;14.90;67.40;;;;;;4173177;28;20052;-63
2022/02/21 02:32:32;;;;;;;10.70;2.70;;;15.00;67.70;;;;;;4172232;28;20518;-63
2022/02/21 02:34:54;;;;;;;16.88;3.20;;;15.00;67.40;;;;;;4160117;28;20479;-63
2022/02/21 02:37:20;;;;;;;14.45;3.25;;;15.10;67.50;;;;;;4159872;28;20049;-64
2022/02/21 02:39:44;;;;;;;11.32;2.97;;;15.10;67.20;;;;;;4161968;28;20145;-64
2022/02/21 02:42:07;;;;;;;14.63;3.03;;;15.20;67.30;;;;;;4161291;28;20057;-64
2022/02/21 02:44:29;;;;;;;15.00;3.35;;;15.20;66.90;;;;;;4161462;28;20053;-63
2022/02/21 02:46:52;;;;;;;15.52;4.15;;;15.20;66.60;;;;;;4161471;28;20052;-63
2022/02/21 02:49:15;;;;;;;13.65;3.00;;;15.20;66.50;;;;;;4147162;28;20065;-63
2022/02/21 02:51:37;;;;;;;12.25;2.92;;;15.20;66.40;;;;;;4161485;28;20493;-63
2022/02/21 02:53:59;;;;;;;19.17;4.53;;;15.20;66.60;;;;;;4161474;28;20052;-64
2022/02/21 02:56:22;;;;;;;14.48;3.55;;;15.20;66.40;;;;;;4161729;28;20148;-64
2022/02/21 02:58:44;;;;;;;12.55;2.90;;;15.20;66.10;;;;;;4162092;28;20122;-64
2022/02/21 03:01:06;;;;;;;15.25;3.97;;;15.20;66.00;;;;;;4162061;28;20049;-64
2022/02/21 03:03:28;;;;;;;12.63;3.35;;;15.10;65.80;;;;;;4161536;28;20045;-63
2022/02/21 03:05:50;;;;;;;14.40;3.28;;;15.20;66.60;;;;;;4160921;28;20130;-64
2022/02/21 03:08:13;;;;;;;14.15;2.75;;;15.20;65.20;;;;;;4161394;28;20467;-64
2022/02/21 03:10:34;;;;;;;15.00;3.70;;;15.30;65.80;;;;;;4161231;28;20509;-64
2022/02/21 03:12:58;;;;;;;11.90;3.10;;;15.30;65.90;;;;;;4160996;28;20049;-64
2022/02/21 03:15:20;;;;;;;14.00;3.10;;;15.40;65.00;;;;;;4161506;28;20045;-64
2022/02/21 03:17:42;;;;;;;12.38;2.75;;;15.40;64.90;;;;;;4161215;28;20057;-64
2022/02/21 03:20:05;;;;;;;8.13;2.40;;;15.40;64.40;;;;;;4161413;28;20401;-63
2022/02/21 03:22:27;;;;;;;15.52;3.50;;;15.40;65.00;;;;;;4160357;28;20046;-64
2022/02/21 03:24:49;;;;;;;14.50;3.70;;;15.40;65.20;;;;;;4161192;28;20041;-64
2022/02/21 03:27:12;;;;;;;11.80;3.00;;;15.40;65.80;;;;;;4160812;28;20547;-63
2022/02/21 03:29:35;;;;;;;11.55;2.45;;;15.40;65.50;;;;;;4161004;28;20048;-63
2022/02/21 03:31:57;;;;;;;13.93;3.20;;;15.40;64.80;;;;;;4159800;28;20083;-63
2022/02/21 03:34:23;;;;;;;16.98;3.03;;;15.40;64.90;;;;;;4161046;28;20084;-63
2022/02/21 03:36:45;;;;;;;14.65;3.33;;;15.40;64.40;;;;;;4161079;28;20052;-64
2022/02/21 03:39:07;;;;;;;19.80;3.72;;;15.30;64.80;;;;;;4160574;28;20045;-64
2022/02/21 03:41:30;;;;;;;16.48;3.47;;;15.30;64.80;;;;;;4160649;28;20569;-64
2022/02/21 03:43:52;;;;;;;14.38;3.58;;;15.30;64.80;;;;;;4160995;28;20049;-64
2022/02/21 03:46:19;;;;;;;9.05;2.88;;;15.30;65.10;;;;;;4159604;28;20057;-64
2022/02/21 03:48:41;;;;;;;13.40;2.47;;;15.30;64.20;;;;;;4160866;28;20107;-64
2022/02/21 03:51:03;;;;;;;11.93;2.45;;;15.30;64.50;;;;;;4160792;28;20410;-64
2022/02/21 03:53:25;;;;;;;11.32;3.30;;;15.30;64.80;;;;;;4160068;28;20474;-64
2022/02/21 03:55:48;;;;;;;9.70;2.25;;;15.30;65.10;;;;;;4159852;28;20057;-64
2022/02/21 03:58:11;;;;;;;8.90;2.75;;;15.40;64.90;;;;;;4158357;28;20049;-63
2022/02/21 04:00:33;;;;;;;12.85;3.30;;;15.40;64.50;;;;;;4160578;28;20127;-63
2022/02/21 04:02:56;;;;;;;8.40;2.95;;;15.50;64.30;;;;;;4160439;28;20045;-63
2022/02/21 04:05:18;;;;;;;13.30;2.90;;;15.50;64.10;;;;;;4160552;28;20535;-63
2022/02/21 04:07:42;;;;;;;10.15;2.28;;;15.60;63.70;;;;;;4160802;28;20060;-63
2022/02/21 04:10:05;;;;;;;14.57;3.17;;;15.60;63.60;;;;;;4159988;28;20132;-64
2022/02/21 04:12:27;;;;;;;15.07;3.30;;;15.60;63.70;;;;;;4159561;28;20057;-63
2022/02/21 04:14:49;;;;;;;17.05;3.70;;;15.60;63.90;;;;;;4160105;28;20126;-63
2022/02/21 04:17:11;;;;;;;14.65;3.10;;;15.60;63.70;;;;;;4160373;28;20407;-63
2022/02/21 04:19:35;;;;;;;7.95;2.80;;;15.70;63.50;;;;;;4159651;28;20069;-64
2022/02/21 04:21:59;;;;;;;11.57;2.92;;;15.70;63.40;;;;;;4159522;28;20056;-63
2022/02/21 04:24:21;;;;;;;11.30;2.97;;;15.70;63.20;;;;;;4159523;28;20128;-63
2022/02/21 04:26:43;;;;;;;13.98;3.08;;;15.60;63.00;;;;;;4158711;28;20558;-63
2022/02/21 04:29:05;;;;;;;12.68;3.15;;;15.70;63.10;;;;;;4159025;28;20164;-64
2022/02/21 04:31:27;;;;;;;10.15;2.30;;;15.60;63.90;;;;;;4159875;28;20453;-64
2022/02/21 04:33:49;;;;;;;14.05;2.50;;;15.70;63.20;;;;;;4159686;28;20132;-64
2022/02/21 04:36:13;;;;;;;18.10;3.00;;;15.70;63.60;;;;;;4159973;28;20080;-64
2022/02/21 04:38:35;;;;;;;14.60;3.05;;;15.70;63.40;;;;;;4154927;28;20053;-64
2022/02/21 04:40:57;;;;;;;12.27;3.20;;;15.80;63.30;;;;;;4160159;28;20041;-64
2022/02/21 04:43:19;;;;;;;10.93;2.90;;;15.70;62.90;;;;;;4158506;28;20152;-64
2022/02/21 04:45:41;;;;;;;10.38;2.35;;;15.80;63.00;;;;;;4159598;28;20362;-64
2022/02/21 04:48:04;;;;;;;9.95;2.65;;;15.80;62.80;;;;;;4159788;28;20393;-64
2022/02/21 04:50:26;;;;;;;15.40;2.83;;;15.80;62.50;;;;;;4159693;28;20053;-64
2022/02/21 04:52:49;;;;;;;13.07;3.00;;;15.80;62.80;;;;;;4159508;28;20088;-64
2022/02/21 04:55:13;;;;;;;10.30;1.90;;;15.80;62.80;;;;;;4158216;28;20588;-64
2022/02/21 04:57:35;;;;;;;10.50;2.58;;;15.80;62.60;;;;;;4159561;28;20064;-64
2022/02/21 04:59:58;;;;;;;11.35;3.13;;;15.80;62.70;;;;;;4159777;28;20461;-64
2022/02/21 05:02:20;;;;;;;11.30;2.65;;;15.80;62.60;;;;;;4159609;28;20099;-64
2022/02/21 05:04:42;;;;;;;10.18;3.10;;;15.70;62.60;;;;;;4159945;28;20053;-64
2022/02/21 05:07:08;;;;;;;9.38;3.10;;;15.70;62.50;;;;;;4159067;28;20400;-64
2022/02/21 05:09:32;;;;;;;13.82;3.70;;;15.80;62.50;;;;;;4159489;28;20056;-64
2022/02/21 05:11:54;;;;;;;12.93;2.97;;;15.80;62.60;;;;;;4159066;28;20049;-64
2022/02/21 05:14:16;;;;;;;13.20;2.42;;;15.70;62.50;;;;;;4159518;28;20049;-64
2022/02/21 05:16:38;;;;;;;12.13;2.88;;;15.70;62.70;;;;;;4159338;28;20076;-64
2022/02/21 05:19:02;;;;;;;8.60;2.60;;;15.70;62.80;;;;;;4158765;28;20045;-63
2022/02/21 05:21:24;;;;;;;14.65;2.90;;;15.70;63.10;;;;;;4155504;28;20049;-64
2022/02/21 05:23:46;;;;;;;11.48;3.22;;;15.70;63.00;;;;;;4142961;28;20402;-64
2022/02/21 05:26:10;;;;;;;15.38;2.40;;;15.60;62.80;;;;;;4143207;28;20695;-64
2022/02/21 05:28:32;;;;;;;15.02;3.53;;;15.60;63.10;;;;;;4143232;28;20418;-63
2022/02/21 05:30:55;;;;;;;11.63;2.78;;;15.60;63.30;;;;;;4143644;28;20052;-62
2022/02/21 05:33:17;;;;;;;9.88;2.67;;;15.70;63.50;;;;;;4143353;28;20050;-62
2022/02/21 05:35:40;;;;;;;11.38;3.15;;;15.80;63.20;;;;;;4172416;28;20041;-64
2022/02/21 05:38:02;;;;;;;20.85;3.10;;;15.80;62.40;;;;;;4159406;28;20057;-64
2022/02/21 05:40:24;;;;;;;12.57;2.92;;;15.90;63.30;;;;;;4159532;28;20201;-64
2022/02/21 05:42:47;;;;;;;15.50;2.60;;;15.90;62.10;;;;;;4159036;28;20053;-64
2022/02/21 05:45:10;;;;;;;8.25;2.97;;;15.90;62.10;;;;;;4159295;28;20429;-64
2022/02/21 05:47:32;;;;;;;15.25;3.10;;;15.90;61.90;;;;;;4159107;28;20132;-64
2022/02/21 05:49:54;;;;;;;9.60;2.50;;;15.90;61.90;;;;;;4159095;28;20049;-65
2022/02/21 05:52:17;;;;;;;11.13;2.95;;;15.90;61.80;;;;;;4153354;28;20057;-64
2022/02/21 05:54:39;;;;;;;10.90;2.70;;;15.90;62.00;;;;;;4159368;28;20390;-63
2022/02/21 05:57:05;;;;;;;12.82;2.70;;;15.90;62.40;;;;;;4159266;28;20049;-64
2022/02/21 05:59:29;;;;;;;7.13;2.40;;;15.90;62.70;;;;;;4159373;28;20045;-64
2022/02/21 06:01:52;;;;;;;9.23;2.70;;;15.90;62.20;;;;;;4159184;28;20049;-65
2022/02/21 06:04:14;;;;;;;11.30;2.80;;;15.80;63.10;;;;;;4159081;28;20194;-64
2022/02/21 06:06:36;;;;;;;6.20;2.17;;;15.80;61.80;;;;;;4158274;28;20045;-64
2022/02/21 06:08:58;;;;;;;11.73;3.20;;;15.80;61.90;;;;;;4160127;28;20053;-63
2022/02/21 06:11:20;;;;;;;13.55;3.15;;;15.70;62.30;;;;;;4162262;28;20433;-64
2022/02/21 06:13:42;;;;;;;8.98;2.78;;;15.70;62.20;;;;;;4162015;28;20119;-63
2022/02/21 06:16:06;;;;;;;6.25;2.08;;;15.70;63.50;;;;;;4161498;28;20099;-64
2022/02/21 06:18:28;;;;;;;14.18;2.90;;;15.70;62.90;;;;;;4161342;28;20132;-66
2022/02/21 06:20:51;;;;;;;10.02;2.55;;;15.80;62.70;;;;;;4161242;28;20053;-66
2022/02/21 06:23:12;;;;;;;11.35;2.95;;;16.00;61.90;;;;;;4161410;28;20512;-66
2022/02/21 06:25:35;;;;;;;13.60;3.40;;;16.10;61.80;;;;;;4161493;28;20064;-65
2022/02/21 06:27:57;;;;;;;10.68;2.50;;;16.10;61.50;;;;;;4159755;28;20065;-65
2022/02/21 06:30:19;;;;;;;9.38;2.53;;;16.10;61.20;;;;;;4161647;28;20058;-65
2022/02/21 06:32:43;;;;;;;9.15;2.83;;;16.10;60.80;;;;;;4161696;28;20057;-65
2022/02/21 06:35:07;;;;;;;12.88;3.03;;;16.10;61.10;;;;;;4161199;28;20467;-65
2022/02/21 06:37:29;;;;;;;18.65;3.72;;;16.10;60.80;;;;;;4161966;28;20045;-64
2022/02/21 06:39:51;;;;;;;9.32;2.88;;;16.00;61.30;;;;;;4161760;28;20423;-64
2022/02/21 06:42:15;;;;;;;12.32;2.75;;;16.00;61.50;;;;;;4161520;28;20046;-64
2022/02/21 06:44:37;;;;;;;15.00;3.53;;;15.90;61.50;;;;;;4161477;28;20053;-64
2022/02/21 06:46:59;;;;;;;16.13;2.92;;;15.90;61.60;;;;;;4161651;28;20055;-64
2022/02/21 06:49:23;;;;;;;14.13;2.47;;;15.90;61.00;;;;;;4160837;28;20072;-64
2022/02/21 06:51:45;;;;;;;11.95;3.33;;;15.90;61.40;;;;;;4152984;28;20417;-64
2022/02/21 06:54:08;;;;;;;12.70;3.33;;;15.90;61.70;;;;;;4161506;28;20136;-64
2022/02/21 06:56:31;;;;;;;8.70;2.30;;;15.80;61.50;;;;;;4161738;28;20076;-64
2022/02/21 06:58:53;;;;;;;11.27;2.85;;;15.80;61.70;;;;;;4161350;28;20060;-63
2022/02/21 07:01:16;;;;;;;11.18;2.70;;;15.80;61.50;;;;;;4159931;28;20056;-64
2022/02/21 07:03:38;;;;;;;14.48;3.00;;;15.70;61.40;;;;;;4161719;28;20057;-64
2022/02/21 07:06:02;;;;;;;7.75;2.15;;;15.70;61.80;;;;;;4161071;28;20061;-64
2022/02/21 07:08:24;;;;;;;13.25;3.30;;;15.70;62.10;;;;;;4161432;28;20134;-64
2022/02/21 07:10:47;;;;;;;13.02;2.80;;;15.80;62.20;;;;;;4161627;28;20056;-64
2022/02/21 07:13:08;;;;;;;9.10;2.13;;;15.90;62.00;;;;;;4161451;28;20053;-64
2022/02/21 07:15:32;;;;;;;15.15;3.97;;;16.00;60.90;;;;;;4160927;28;20418;-64
2022/02/21 07:17:54;;;;;;;9.70;2.83;;;16.10;60.70;;;;;;4160964;28;20052;-64
2022/02/21 07:20:17;;;;;;;13.55;3.70;;;16.20;60.10;;;;;;4160364;28;20033;-64
2022/02/21 07:22:42;;;;;;;14.65;3.47;;;16.30;60.10;;;;;;4160802;28;20053;-64
2022/02/21 07:25:05;;;;;;;16.05;3.28;;;16.40;59.80;;;;;;4160237;28;20041;-63
2022/02/21 07:27:27;;;;;;;10.85;2.40;;;16.40;59.50;;;;;;4162478;28;20080;-63
2022/02/21 07:29:49;;;;;;;11.68;2.80;;;16.40;59.40;;;;;;4160831;28;20057;-63
2022/02/21 07:32:13;;;;;;;8.70;2.30;;;16.40;60.40;;;;;;4159771;28;20072;-63
2022/02/21 07:34:35;;;;;;;13.77;3.30;;;16.40;59.80;;;;;;4160387;28;20523;-63
2022/02/21 07:36:57;;;;;;;14.35;3.70;;;16.40;59.80;;;;;;4160522;28;20104;-65
2022/02/21 07:39:20;;;;;;;13.20;2.67;;;16.40;59.40;;;;;;4160640;28;20054;-63
2022/02/21 07:41:43;;;;;;;10.57;1.95;;;16.40;59.40;;;;;;4159329;28;20057;-63
2022/02/21 07:44:05;;;;;;;15.30;2.97;;;16.40;59.50;;;;;;4160616;28;20137;-63
2022/02/21 07:46:28;;;;;;;17.83;3.08;;;16.40;59.50;;;;;;4160555;28;20571;-64
2022/02/21 07:48:50;;;;;;;10.68;2.40;;;16.30;59.50;;;;;;4176721;28;20103;-63
2022/02/21 07:51:12;;;;;;;18.85;2.75;;;16.20;60.20;;;;;;4176962;28;20534;-64
2022/02/21 07:53:34;;;;;;;11.40;2.67;;;16.20;59.50;;;;;;4177226;28;20132;-64
2022/02/21 07:55:58;;;;;;;12.52;2.97;;;16.10;59.70;;;;;;4176959;28;20396;-64
2022/02/21 07:58:20;;;;;;;12.73;2.17;;;16.10;60.00;;;;;;4177118;28;20049;-63
2022/02/21 08:00:42;;;;;;;17.98;3.38;;;16.20;60.20;;;;;;4177129;28;20128;-61
2022/02/21 08:03:05;;;;;;;21.33;3.40;;;16.30;59.10;;;;;;4177080;28;20057;-63
2022/02/21 08:05:27;;;;;;;14.32;2.40;;;16.40;58.30;;;;;;4176139;28;20057;-64
2022/02/21 08:07:49;;;;;;;19.60;4.47;;;16.40;58.00;;;;;;4161405;28;20052;-64
2022/02/21 08:10:12;;;;;;;13.35;3.33;;;16.50;58.00;;;;;;4161640;28;20109;-64
2022/02/21 08:12:36;;;;;;;15.20;3.40;;;16.60;57.80;;;;;;4159106;28;20505;-65
2022/02/21 08:14:59;;;;;;;15.75;3.15;;;16.60;57.50;;;;;;4160340;28;20387;-64
2022/02/21 08:17:21;;;;;;;13.38;2.95;;;16.70;57.30;;;;;;4160446;28;20056;-64
2022/02/21 08:19:43;;;;;;;12.07;3.70;;;16.80;57.10;;;;;;4159694;28;20061;-64
2022/02/21 08:22:05;;;;;;;6.32;1.80;;;16.70;56.90;;;;;;4160034;28;20092;-64
2022/02/21 08:24:27;;;;;;;18.23;3.95;;;16.70;56.90;;;;;;4160152;28;20057;-63
2022/02/21 08:26:49;;;;;;;14.13;3.78;;;16.70;56.90;;;;;;4160008;28;20049;-65
2022/02/21 08:29:13;;;;;;;11.77;3.10;;;16.70;57.10;;;;;;4160027;28;20374;-63
2022/02/21 08:31:36;;;;;;;8.85;2.35;;;16.60;57.80;;;;;;4159565;28;20057;-64
2022/02/21 08:33:58;;;;;;;11.85;3.25;;;16.60;57.10;;;;;;4158431;28;20052;-63
2022/02/21 08:36:21;;;;;;;11.18;2.97;;;16.60;57.10;;;;;;4160338;28;20383;-63
2022/02/21 08:38:43;;;;;;;11.93;2.92;;;16.50;57.30;;;;;;4160072;28;20489;-63
2022/02/21 08:41:05;;;;;;;13.68;3.05;;;16.40;57.40;;;;;;4160123;28;20053;-63
2022/02/21 08:43:28;;;;;;;13.13;2.90;;;16.30;57.70;;;;;;4159656;28;20045;-62
2022/02/21 08:45:52;;;;;;;12.43;3.17;;;16.30;57.90;;;;;;4160032;28;20512;-64
2022/02/21 08:48:15;;;;;;;6.80;2.25;;;16.20;57.90;;;;;;4159045;28;20056;-64
2022/02/21 08:50:37;;;;;;;8.73;2.65;;;16.20;57.90;;;;;;4159475;28;20068;-66
2022/02/21 08:52:59;;;;;;;4.30;1.95;;;16.20;57.80;;;;;;4159360;28;20135;-64
2022/02/21 08:55:21;;;;;;;8.38;2.35;;;16.20;57.90;;;;;;4160031;28;20107;-64
2022/02/21 08:57:45;;;;;;;9.02;1.90;;;16.20;57.90;;;;;;4159795;28;20148;-64
2022/02/21 09:00:09;;;;;;;7.45;2.10;;;16.30;57.80;;;;;;4159654;28;20124;-64
2022/02/21 09:02:33;;;;;;;7.97;2.33;;;16.40;57.60;;;;;;4158689;28;20056;-63
2022/02/21 09:05:16;;;;;;;8.13;1.42;;;16.50;57.50;;;;;;4158346;28;20053;-63
2022/02/21 09:07:39;;;;;;;5.07;1.88;;;16.50;57.30;;;;;;4159306;28;20056;-63
2022/02/21 09:10:01;;;;;;;7.43;1.83;;;16.50;57.20;;;;;;4158354;28;20045;-63
2022/02/21 09:12:24;;;;;;;5.03;1.63;;;16.40;57.20;;;;;;4159778;28;20045;-63
2022/02/21 09:14:47;;;;;;;2.33;1.10;;;16.40;57.40;;;;;;4159332;28;20055;-64
2022/02/21 09:17:09;;;;;;;3.22;1.02;;;16.30;57.50;;;;;;4159706;28;20056;-63
2022/02/21 09:19:33;;;;;;;3.08;1.15;;;16.30;57.60;;;;;;4159389;28;20482;-64
2022/02/21 09:21:55;;;;;;;2.17;0.68;;;16.20;57.60;;;;;;4157867;28;20049;-64
2022/02/21 09:24:17;;;;;;;1.73;0.73;;;16.20;57.80;;;;;;4159562;28;20131;-64
2022/02/21 09:26:40;;;;;;;1.85;0.70;;;16.10;58.00;;;;;;4159201;28;20103;-63
2022/02/21 09:29:02;;;;;;;3.72;0.80;;;16.10;58.10;;;;;;4159063;28;20478;-63
2022/02/21 09:31:24;;;;;;;1.27;1.05;;;16.20;58.30;;;;;;4159455;28;20525;-63
2022/02/21 09:33:46;;;;;;;0.60;0.40;;;16.20;58.20;;;;;;4192218;28;20419;-63
2022/02/21 09:36:09;;;;;;;1.27;0.90;;;16.20;58.10;;;;;;4169971;28;20110;-63
2022/02/21 09:38:32;;;;;;;2.47;0.88;;;16.20;58.00;;;;;;4159450;28;20045;-63
2022/02/21 09:40:56;;;;;;;2.25;0.80;;;16.30;58.00;;;;;;4159732;28;20053;-63
2022/02/21 09:43:25;;;;;;;1.38;0.82;;;16.40;57.70;;;;;;4159447;28;20689;-63
2022/02/21 09:45:48;;;;;;;1.83;0.88;;;16.40;57.40;;;;;;4162824;28;20057;-63
2022/02/21 09:48:14;;;;;;;2.22;0.88;;;16.50;57.30;;;;;;4180498;28;20056;-63
2022/02/21 09:50:41;;;;;;;3.55;1.05;;;16.50;57.30;;;;;;4195894;28;20056;-63
2022/02/21 09:53:05;;;;;;;2.95;0.93;;;16.50;57.30;;;;;;4195148;28;20052;-63
2022/02/21 09:55:28;;;;;;;0.77;0.50;;;16.50;57.20;;;;;;4195541;28;20506;-63
2022/02/21 09:57:51;;;;;;;1.05;0.40;;;16.50;57.70;;;;;;4195725;28;20048;-63
2022/02/21 10:00:14;;;;;;;1.70;0.52;;;16.50;56.90;;;;;;4163399;28;20049;-63
2022/02/21 10:02:36;;;;;;;0.90;0.57;;;16.50;57.00;;;;;;4162340;28;20631;-62
2022/02/21 10:05:12;;;;;;;1.95;0.88;;;16.50;57.10;;;;;;4162047;28;20060;-64
2022/02/21 10:07:37;;;;;;;1.50;0.68;;;16.50;57.40;;;;;;4161715;28;20056;-63
2022/02/21 10:10:01;;;;;;;0.73;0.40;;;16.40;57.60;;;;;;4161939;28;20091;-65
2022/02/21 10:12:23;;;;;;;2.05;0.70;;;16.40;57.70;;;;;;4161572;28;20046;-64
2022/02/21 10:14:45;;;;;;;2.13;0.70;;;16.40;57.90;;;;;;4160944;28;20155;-64
2022/02/21 10:17:08;;;;;;;2.67;0.93;;;16.30;58.00;;;;;;4160820;28;20397;-63
2022/02/21 10:19:36;;;;;;;11.15;1.25;;;16.30;58.30;;;;;;4162281;28;20045;-65
2022/02/21 10:22:01;;;;;;;2.50;0.70;;;16.20;58.40;;;;;;4161404;28;20063;-64
2022/02/21 10:24:24;;;;;;;1.17;0.60;;;16.20;58.60;;;;;;4162167;28;20048;-63
2022/02/21 10:26:47;;;;;;;12.88;1.00;;;16.10;58.70;;;;;;4161625;28;20046;-63
2022/02/21 10:29:11;;;;;;;1.10;0.70;;;16.00;58.90;;;;;;4162151;28;20077;-63
2022/02/21 10:31:33;;;;;;;7.40;1.23;;;15.90;59.20;;;;;;4161792;28;20085;-64
2022/02/21 10:34:14;;;;;;;;;;;16.00;59.50;;;;;;4162368;28;20065;-62
2022/02/21 10:36:39;;;;;;;2.50;0.47;;;16.10;59.30;;;;;;4161911;28;19929;-62
2022/02/21 10:39:08;;;;;;;3.15;0.80;;;16.20;59.10;;;;;;4161580;28;20045;-62
2022/02/21 10:41:53;;;;;;;6.05;0.60;;;16.30;59.00;;;;;;4161961;28;20148;-62
2022/02/21 10:44:22;;;;;;;3.50;0.60;;;16.50;58.90;;;;;;4161609;28;20052;-62
2022/02/21 10:47:00;;;;;;;0.60;0.40;;;16.50;58.50;;;;;;4161676;28;20052;-62
2022/02/21 10:49:47;;;;;;;9.52;0.95;;;16.60;58.10;;;;;;4161686;28;20130;-62
2022/02/21 10:52:14;;;;;;;0.65;0.40;;;16.60;58.00;;;;;;4161039;28;20503;-62
2022/02/21 10:54:37;;;;;;;1.75;0.50;;;16.60;57.90;;;;;;4161062;28;20038;-63
2022/02/21 10:57:01;;;;;;;1.83;0.60;;;16.60;57.90;;;;;;4193285;28;20045;-62
2022/02/21 10:59:27;;;;;;;1.02;0.75;;;16.50;57.90;;;;;;4174896;28;20052;-63
2022/02/21 11:01:50;;;;;;;3.28;0.43;;;16.50;58.00;;;;;;4176318;28;20072;-64
2022/02/21 11:04:13;;;;;;;0.43;0.40;;;16.40;58.10;;;;;;4177066;28;20048;-63
2022/02/21 11:06:35;;;;;;;1.92;0.50;;;16.30;58.30;;;;;;4177806;28;20128;-65
2022/02/21 11:08:58;;;;;;;0.98;0.30;;;16.20;58.50;;;;;;4177796;28;20489;-63
2022/02/21 11:11:23;;;;;;;1.73;0.80;;;16.20;58.70;;;;;;4177683;28;20049;-63
2022/02/21 11:13:50;;;;;;;0.40;0.40;;;16.00;59.00;;;;;;4177227;28;20053;-63
2022/02/21 11:16:13;;;;;;;1.65;0.80;;;15.90;59.20;;;;;;4164168;28;20056;-63
2022/02/21 11:18:35;;;;;;;1.52;0.80;;;15.90;59.50;;;;;;4177248;28;20488;-63
2022/02/21 11:20:57;;;;;;;0.40;0.40;;;15.80;59.70;;;;;;4177332;28;20386;-63
2022/02/21 11:23:20;;;;;;;1.85;0.77;;;15.70;59.90;;;;;;4177094;28;20041;-63
2022/02/21 11:25:48;;;;;;;0.55;0.40;;;15.60;60.10;;;;;;4177452;28;20477;-62
2022/02/21 11:28:18;;;;;;;2.03;0.60;;;15.50;60.30;;;;;;4177663;28;20481;-63
2022/02/21 11:30:44;;;;;;;0.55;0.55;;;15.50;60.60;;;;;;4176715;28;20056;-63
2022/02/21 11:33:09;;;;;;;1.75;0.80;;;15.40;60.70;;;;;;4160671;28;20409;-63
2022/02/21 11:35:32;;;;;;;3.78;1.17;;;15.30;61.00;;;;;;4166864;28;20076;-63
2022/02/21 11:37:54;;;;;;;0.57;0.57;;;15.20;62.00;;;;;;4177271;28;20151;-63
2022/02/21 11:40:17;;;;;;;0.80;0.52;;;15.20;61.40;;;;;;4177078;28;20045;-63
2022/02/21 11:42:42;;;;;;;1.40;0.68;;;15.10;61.70;;;;;;4176864;28;20111;-63
2022/02/21 11:45:06;;;;;;;0.82;0.60;;;15.10;62.00;;;;;;4177128;28;20202;-63
2022/02/21 11:47:41;;;;;;;0.70;0.70;;;15.10;62.20;;;;;;4176356;28;20090;-63
2022/02/21 11:50:08;;;;;;;1.92;0.70;;;15.00;62.30;;;;;;4160286;28;20056;-62
2022/02/21 11:52:33;;;;;;;1.45;0.70;;;14.90;62.50;;;;;;4160498;28;20045;-63
2022/02/21 11:54:55;;;;;;;1.05;0.82;;;14.90;62.80;;;;;;4175804;28;20045;-63
2022/02/21 11:57:17;;;;;;;2.50;0.70;;;14.90;62.90;;;;;;4160880;28;20049;-62
2022/02/21 11:59:40;;;;;;;1.33;0.73;;;14.80;63.20;;;;;;4160525;28;20095;-63
2022/02/21 12:02:07;;;;;;;2.78;0.90;;;14.80;63.40;;;;;;4160428;28;20053;-63
2022/02/21 12:04:47;;;;;;;3.17;0.90;;;14.80;63.50;;;;;;4160254;28;20071;-63
2022/02/21 12:07:22;;;;;;;3.60;1.30;;;14.70;63.40;;;;;;4142959;28;20060;-63
2022/02/21 12:10:09;;;;;;;3.72;1.50;;;14.70;63.60;;;;;;4149311;28;20152;-63
2022/02/21 12:12:49;;;;;;;9.45;2.22;;;14.70;63.90;;;;;;4176746;28;20052;-65
2022/02/21 12:15:12;;;;;;;6.93;2.13;;;14.60;64.10;;;;;;4176815;28;20095;-63
2022/02/21 12:17:35;;;;;;;8.80;1.92;;;14.60;64.30;;;;;;4174632;28;20424;-63
2022/02/21 12:19:59;;;;;;;7.22;2.28;;;14.50;64.40;;;;;;4160306;28;20049;-63